sensor_id;sensor_type;location;lat;lon;timestamp;temperature;humidity
67364;HTU21D;54250;45.572;38.086;2022-09-24T00:00:45;9.91;75.50
67364;HTU21D;54250;45.572;38.086;2022-09-24T00:03:20;10.00;75.45
67364;HTU21D;54250;45.572;38.086;2022-09-24T00:05:46;10.09;75.37
67364;HTU21D;54250;45.572;38.086;2022-09-24T00:08:13;10.16;75.29
67364;HTU21D;54250;45.572;38.086;2022-09-24T00:10:39;10.24;75.23
67364;HTU21D;54250;45.572;38.086;2022-09-24T00:13:05;10.30;75.17
67364;HTU21D;54250;45.572;38.086;2022-09-24T00:15:35;10.34;75.14
67364;HTU21D;54250;45.572;38.086;2022-09-24T00:18:00;10.34;75.22
67364;HTU21D;54250;45.572;38.086;2022-09-24T00:20:28;10.30;75.41
67364;HTU21D;54250;45.572;38.086;2022-09-24T00:22:54;10.29;75.50
67364;HTU21D;54250;45.572;38.086;2022-09-24T00:25:20;10.29;75.54
67364;HTU21D;54250;45.572;38.086;2022-09-24T00:28:04;10.30;75.52
67364;HTU21D;54250;45.572;38.086;2022-09-24T00:30:32;10.30;75.49
67364;HTU21D;54250;45.572;38.086;2022-09-24T00:32:58;10.28;75.54
67364;HTU21D;54250;45.572;38.086;2022-09-24T00:35:24;10.22;75.66
67364;HTU21D;54250;45.572;38.086;2022-09-24T00:37:50;10.14;75.82
67364;HTU21D;54250;45.572;38.086;2022-09-24T00:40:16;10.09;75.93
67364;HTU21D;54250;45.572;38.086;2022-09-24T00:42:42;10.10;75.94
67364;HTU21D;54250;45.572;38.086;2022-09-24T00:45:08;10.11;75.90
67364;HTU21D;54250;45.572;38.086;2022-09-24T00:47:40;10.12;75.82
67364;HTU21D;54250;45.572;38.086;2022-09-24T00:52:33;10.16;75.68
67364;HTU21D;54250;45.572;38.086;2022-09-24T00:55:00;10.15;75.64
67364;HTU21D;54250;45.572;38.086;2022-09-24T00:57:26;10.15;75.63
67364;HTU21D;54250;45.572;38.086;2022-09-24T00:59:51;10.13;75.65
67364;HTU21D;54250;45.572;38.086;2022-09-24T01:02:19;10.12;75.69
67364;HTU21D;54250;45.572;38.086;2022-09-24T01:04:45;10.11;75.67
67364;HTU21D;54250;45.572;38.086;2022-09-24T01:07:11;10.14;75.59
67364;HTU21D;54250;45.572;38.086;2022-09-24T01:09:37;10.18;75.50
67364;HTU21D;54250;45.572;38.086;2022-09-24T01:12:25;10.19;75.46
67364;HTU21D;54250;45.572;38.086;2022-09-24T01:17:24;10.15;75.47
67364;HTU21D;54250;45.572;38.086;2022-09-24T01:30:45;10.23;75.31
67364;HTU21D;54250;45.572;38.086;2022-09-24T01:33:15;10.27;75.21
67364;HTU21D;54250;45.572;38.086;2022-09-24T01:35:43;10.34;75.10
67364;HTU21D;54250;45.572;38.086;2022-09-24T01:38:16;10.38;75.01
67364;HTU21D;54250;45.572;38.086;2022-09-24T01:40:43;10.43;74.95
67364;HTU21D;54250;45.572;38.086;2022-09-24T01:43:10;10.50;74.87
67364;HTU21D;54250;45.572;38.086;2022-09-24T01:45:36;10.54;74.83
67364;HTU21D;54250;45.572;38.086;2022-09-24T01:48:03;10.57;74.85
67364;HTU21D;54250;45.572;38.086;2022-09-24T01:50:32;10.63;74.82
67364;HTU21D;54250;45.572;38.086;2022-09-24T01:53:32;10.67;74.80
67364;HTU21D;54250;45.572;38.086;2022-09-24T01:56:01;10.72;74.79
67364;HTU21D;54250;45.572;38.086;2022-09-24T01:58:32;10.75;74.76
67364;HTU21D;54250;45.572;38.086;2022-09-24T02:01:02;10.79;74.76
67364;HTU21D;54250;45.572;38.086;2022-09-24T02:03:32;10.84;74.73
67364;HTU21D;54250;45.572;38.086;2022-09-24T02:06:00;10.88;74.70
67364;HTU21D;54250;45.572;38.086;2022-09-24T02:08:29;10.92;74.70
67364;HTU21D;54250;45.572;38.086;2022-09-24T02:11:04;10.96;74.70
67364;HTU21D;54250;45.572;38.086;2022-09-24T02:13:36;10.99;74.79
67364;HTU21D;54250;45.572;38.086;2022-09-24T02:16:04;11.02;74.76
67364;HTU21D;54250;45.572;38.086;2022-09-24T02:18:32;11.07;74.73
67364;HTU21D;54250;45.572;38.086;2022-09-24T02:20:59;11.10;74.72
67364;HTU21D;54250;45.572;38.086;2022-09-24T02:23:27;11.14;74.70
67364;HTU21D;54250;45.572;38.086;2022-09-24T02:25:55;11.17;74.67
67364;HTU21D;54250;45.572;38.086;2022-09-24T02:28:23;11.19;74.64
67364;HTU21D;54250;45.572;38.086;2022-09-24T02:30:54;11.23;74.67
67364;HTU21D;54250;45.572;38.086;2022-09-24T02:33:23;11.25;74.64
67364;HTU21D;54250;45.572;38.086;2022-09-24T02:36:09;11.27;74.66
67364;HTU21D;54250;45.572;38.086;2022-09-24T02:38:36;11.27;74.69
67364;HTU21D;54250;45.572;38.086;2022-09-24T02:41:02;11.27;74.71
67364;HTU21D;54250;45.572;38.086;2022-09-24T02:43:29;11.28;74.73
67364;HTU21D;54250;45.572;38.086;2022-09-24T02:45:55;11.31;74.70
67364;HTU21D;54250;45.572;38.086;2022-09-24T02:48:20;11.34;74.68
67364;HTU21D;54250;45.572;38.086;2022-09-24T02:50:46;11.36;74.67
67364;HTU21D;54250;45.572;38.086;2022-09-24T02:53:12;11.36;74.67
67364;HTU21D;54250;45.572;38.086;2022-09-24T02:55:38;11.37;74.71
67364;HTU21D;54250;45.572;38.086;2022-09-24T02:58:04;11.38;74.73
67364;HTU21D;54250;45.572;38.086;2022-09-24T03:00:29;11.37;74.75
67364;HTU21D;54250;45.572;38.086;2022-09-24T03:02:55;11.36;74.83
67364;HTU21D;54250;45.572;38.086;2022-09-24T03:05:21;11.37;74.84
67364;HTU21D;54250;45.572;38.086;2022-09-24T03:07:47;11.37;74.86
67364;HTU21D;54250;45.572;38.086;2022-09-24T03:10:13;11.39;74.84
67364;HTU21D;54250;45.572;38.086;2022-09-24T03:12:38;11.42;74.80
67364;HTU21D;54250;45.572;38.086;2022-09-24T03:15:06;11.43;74.81
67364;HTU21D;54250;45.572;38.086;2022-09-24T03:17:32;11.44;74.83
67364;HTU21D;54250;45.572;38.086;2022-09-24T03:19:58;11.45;74.86
67364;HTU21D;54250;45.572;38.086;2022-09-24T03:22:24;11.47;74.86
67364;HTU21D;54250;45.572;38.086;2022-09-24T03:24:50;11.51;74.83
67364;HTU21D;54250;45.572;38.086;2022-09-24T03:27:16;11.55;74.76
67364;HTU21D;54250;45.572;38.086;2022-09-24T03:29:43;11.59;74.73
67364;HTU21D;54250;45.572;38.086;2022-09-24T03:32:27;11.62;74.70
67364;HTU21D;54250;45.572;38.086;2022-09-24T03:34:54;11.63;74.71
67364;HTU21D;54250;45.572;38.086;2022-09-24T03:37:20;11.66;74.75
67364;HTU21D;54250;45.572;38.086;2022-09-24T03:39:46;11.70;74.72
67364;HTU21D;54250;45.572;38.086;2022-09-24T03:42:12;11.71;74.70
67364;HTU21D;54250;45.572;38.086;2022-09-24T03:44:37;11.72;74.73
67364;HTU21D;54250;45.572;38.086;2022-09-24T03:47:03;11.71;74.79
67364;HTU21D;54250;45.572;38.086;2022-09-24T03:49:29;11.74;74.79
67364;HTU21D;54250;45.572;38.086;2022-09-24T03:51:55;11.79;74.74
67364;HTU21D;54250;45.572;38.086;2022-09-24T03:54:21;11.84;74.71
67364;HTU21D;54250;45.572;38.086;2022-09-24T03:56:47;11.87;74.69
67364;HTU21D;54250;45.572;38.086;2022-09-24T03:59:13;11.88;74.73
67364;HTU21D;54250;45.572;38.086;2022-09-24T04:01:39;11.87;74.80
67364;HTU21D;54250;45.572;38.086;2022-09-24T04:04:05;11.89;74.85
67364;HTU21D;54250;45.572;38.086;2022-09-24T04:06:30;11.88;74.87
67364;HTU21D;54250;45.572;38.086;2022-09-24T04:08:56;11.88;74.92
67364;HTU21D;54250;45.572;38.086;2022-09-24T04:11:23;11.87;74.96
67364;HTU21D;54250;45.572;38.086;2022-09-24T04:13:49;11.84;75.03
67364;HTU21D;54250;45.572;38.086;2022-09-24T04:16:15;11.81;75.09
67364;HTU21D;54250;45.572;38.086;2022-09-24T04:18:41;11.76;75.15
67364;HTU21D;54250;45.572;38.086;2022-09-24T04:21:06;11.78;75.16
67364;HTU21D;54250;45.572;38.086;2022-09-24T04:23:32;11.76;75.17
67364;HTU21D;54250;45.572;38.086;2022-09-24T04:25:58;11.77;75.18
67364;HTU21D;54250;45.572;38.086;2022-09-24T04:28:30;11.78;75.16
67364;HTU21D;54250;45.572;38.086;2022-09-24T04:30:56;11.79;75.17
67364;HTU21D;54250;45.572;38.086;2022-09-24T04:33:22;11.76;75.42
67364;HTU21D;54250;45.572;38.086;2022-09-24T04:35:48;11.74;76.02
67364;HTU21D;54250;45.572;38.086;2022-09-24T04:38:13;11.74;76.19
67364;HTU21D;54250;45.572;38.086;2022-09-24T04:40:39;11.74;76.18
67364;HTU21D;54250;45.572;38.086;2022-09-24T04:43:05;11.76;76.31
67364;HTU21D;54250;45.572;38.086;2022-09-24T04:45:32;11.77;76.46
67364;HTU21D;54250;45.572;38.086;2022-09-24T04:47:58;11.79;76.36
67364;HTU21D;54250;45.572;38.086;2022-09-24T04:50:24;11.81;76.70
67364;HTU21D;54250;45.572;38.086;2022-09-24T04:52:51;11.84;77.21
67364;HTU21D;54250;45.572;38.086;2022-09-24T04:55:17;11.84;77.27
67364;HTU21D;54250;45.572;38.086;2022-09-24T04:57:45;11.86;77.46
67364;HTU21D;54250;45.572;38.086;2022-09-24T05:00:12;11.88;77.76
67364;HTU21D;54250;45.572;38.086;2022-09-24T05:02:40;11.91;77.94
67364;HTU21D;54250;45.572;38.086;2022-09-24T05:05:06;11.94;78.11
67364;HTU21D;54250;45.572;38.086;2022-09-24T05:07:31;11.99;78.13
67364;HTU21D;54250;45.572;38.086;2022-09-24T05:09:57;12.01;78.30
67364;HTU21D;54250;45.572;38.086;2022-09-24T05:12:23;12.05;78.46
67364;HTU21D;54250;45.572;38.086;2022-09-24T05:14:49;12.07;78.54
67364;HTU21D;54250;45.572;38.086;2022-09-24T05:17:15;12.13;78.42
67364;HTU21D;54250;45.572;38.086;2022-09-24T05:19:41;12.18;78.58
67364;HTU21D;54250;45.572;38.086;2022-09-24T05:22:07;12.23;78.63
67364;HTU21D;54250;45.572;38.086;2022-09-24T05:24:33;12.30;78.71
67364;HTU21D;54250;45.572;38.086;2022-09-24T05:26:59;12.37;78.75
67364;HTU21D;54250;45.572;38.086;2022-09-24T05:29:37;12.42;79.15
67364;HTU21D;54250;45.572;38.086;2022-09-24T05:32:10;12.49;78.95
67364;HTU21D;54250;45.572;38.086;2022-09-24T05:34:36;12.61;78.64
67364;HTU21D;54250;45.572;38.086;2022-09-24T05:37:02;12.74;78.59
67364;HTU21D;54250;45.572;38.086;2022-09-24T05:39:29;12.88;78.47
67364;HTU21D;54250;45.572;38.086;2022-09-24T05:41:55;13.05;78.76
67364;HTU21D;54250;45.572;38.086;2022-09-24T05:44:21;13.25;78.75
67364;HTU21D;54250;45.572;38.086;2022-09-24T05:46:47;13.61;78.28
67364;HTU21D;54250;45.572;38.086;2022-09-24T05:49:13;13.99;77.75
67364;HTU21D;54250;45.572;38.086;2022-09-24T05:51:39;14.56;76.77
67364;HTU21D;54250;45.572;38.086;2022-09-24T05:54:05;15.06;75.67
67364;HTU21D;54250;45.572;38.086;2022-09-24T05:56:31;15.19;75.85
67364;HTU21D;54250;45.572;38.086;2022-09-24T05:58:56;15.18;76.18
67364;HTU21D;54250;45.572;38.086;2022-09-24T06:01:22;15.28;76.31
67364;HTU21D;54250;45.572;38.086;2022-09-24T06:03:49;15.36;76.66
67364;HTU21D;54250;45.572;38.086;2022-09-24T06:06:15;15.57;76.84
67364;HTU21D;54250;45.572;38.086;2022-09-24T06:08:41;16.07;76.15
67364;HTU21D;54250;45.572;38.086;2022-09-24T06:11:06;16.48;75.86
67364;HTU21D;54250;45.572;38.086;2022-09-24T06:13:35;16.87;75.02
67364;HTU21D;54250;45.572;38.086;2022-09-24T06:16:02;16.63;75.50
67364;HTU21D;54250;45.572;38.086;2022-09-24T06:18:28;16.39;76.15
67364;HTU21D;54250;45.572;38.086;2022-09-24T06:20:54;15.98;77.11
67364;HTU21D;54250;45.572;38.086;2022-09-24T06:23:20;15.70;77.72
67364;HTU21D;54250;45.572;38.086;2022-09-24T06:25:49;15.44;78.14
67364;HTU21D;54250;45.572;38.086;2022-09-24T06:28:15;15.22;78.55
67364;HTU21D;54250;45.572;38.086;2022-09-24T06:30:41;15.13;78.72
67364;HTU21D;54250;45.572;38.086;2022-09-24T06:33:08;15.11;78.64
67364;HTU21D;54250;45.572;38.086;2022-09-24T06:35:35;15.13;78.65
67364;HTU21D;54250;45.572;38.086;2022-09-24T06:38:01;15.52;77.91
67364;HTU21D;54250;45.572;38.086;2022-09-24T06:40:27;16.06;76.52
67364;HTU21D;54250;45.572;38.086;2022-09-24T06:42:53;16.42;75.78
67364;HTU21D;54250;45.572;38.086;2022-09-24T06:45:19;17.87;74.22
67364;HTU21D;54250;45.572;38.086;2022-09-24T06:47:54;21.47;66.17
67364;HTU21D;54250;45.572;38.086;2022-09-24T06:50:21;24.32;61.02
67364;HTU21D;54250;45.572;38.086;2022-09-24T06:52:48;25.91;58.43
67364;HTU21D;54250;45.572;38.086;2022-09-24T06:55:14;26.93;57.21
67364;HTU21D;54250;45.572;38.086;2022-09-24T06:57:40;28.04;56.82
67364;HTU21D;54250;45.572;38.086;2022-09-24T07:00:06;29.44;55.10
67364;HTU21D;54250;45.572;38.086;2022-09-24T07:02:32;29.94;55.05
67364;HTU21D;54250;45.572;38.086;2022-09-24T07:04:58;31.52;53.34
67364;HTU21D;54250;45.572;38.086;2022-09-24T07:07:24;31.61;53.26
67364;HTU21D;54250;45.572;38.086;2022-09-24T07:10:01;30.55;55.81
67364;HTU21D;54250;45.572;38.086;2022-09-24T07:12:28;28.57;59.64
67364;HTU21D;54250;45.572;38.086;2022-09-24T07:14:55;27.10;62.77
67364;HTU21D;54250;45.572;38.086;2022-09-24T07:17:21;26.90;63.21
67364;HTU21D;54250;45.572;38.086;2022-09-24T07:19:47;28.40;59.00
67364;HTU21D;54250;45.572;38.086;2022-09-24T07:22:12;27.95;58.94
67364;HTU21D;54250;45.572;38.086;2022-09-24T07:24:38;26.70;60.22
67364;HTU21D;54250;45.572;38.086;2022-09-24T07:27:04;25.53;62.73
67364;HTU21D;54250;45.572;38.086;2022-09-24T07:29:30;25.40;62.73
67364;HTU21D;54250;45.572;38.086;2022-09-24T07:31:56;25.07;63.08
67364;HTU21D;54250;45.572;38.086;2022-09-24T07:34:22;26.83;60.08
67364;HTU21D;54250;45.572;38.086;2022-09-24T07:36:48;27.21;57.83
67364;HTU21D;54250;45.572;38.086;2022-09-24T07:39:14;26.26;59.83
67364;HTU21D;54250;45.572;38.086;2022-09-24T07:41:40;25.50;61.06
67364;HTU21D;54250;45.572;38.086;2022-09-24T07:44:07;24.79;62.13
67364;HTU21D;54250;45.572;38.086;2022-09-24T07:46:33;23.98;63.44
67364;HTU21D;54250;45.572;38.086;2022-09-24T07:48:58;23.16;64.43
67364;HTU21D;54250;45.572;38.086;2022-09-24T07:51:25;22.24;65.59
67364;HTU21D;54250;45.572;38.086;2022-09-24T07:53:51;21.42;66.40
67364;HTU21D;54250;45.572;38.086;2022-09-24T07:56:18;20.80;66.94
67364;HTU21D;54250;45.572;38.086;2022-09-24T07:58:46;20.37;67.23
67364;HTU21D;54250;45.572;38.086;2022-09-24T08:01:12;20.10;67.30
67364;HTU21D;54250;45.572;38.086;2022-09-24T08:03:38;20.02;67.17
67364;HTU21D;54250;45.572;38.086;2022-09-24T08:06:05;20.10;66.81
67364;HTU21D;54250;45.572;38.086;2022-09-24T08:08:31;20.21;66.40
67364;HTU21D;54250;45.572;38.086;2022-09-24T08:11:01;20.34;66.07
67364;HTU21D;54250;45.572;38.086;2022-09-24T08:13:28;20.44;65.87
67364;HTU21D;54250;45.572;38.086;2022-09-24T08:15:57;20.53;65.63
67364;HTU21D;54250;45.572;38.086;2022-09-24T08:18:25;20.70;65.41
67364;HTU21D;54250;45.572;38.086;2022-09-24T08:20:51;20.76;65.17
67364;HTU21D;54250;45.572;38.086;2022-09-24T08:23:17;20.70;65.30
67364;HTU21D;54250;45.572;38.086;2022-09-24T08:25:45;20.63;65.49
67364;HTU21D;54250;45.572;38.086;2022-09-24T08:28:12;20.54;65.70
67364;HTU21D;54250;45.572;38.086;2022-09-24T08:30:41;20.43;65.85
67364;HTU21D;54250;45.572;38.086;2022-09-24T08:33:07;20.20;66.20
67364;HTU21D;54250;45.572;38.086;2022-09-24T08:35:34;19.84;66.77
67364;HTU21D;54250;45.572;38.086;2022-09-24T08:38:00;19.21;67.80
67364;HTU21D;54250;45.572;38.086;2022-09-24T08:40:27;18.48;69.07
67364;HTU21D;54250;45.572;38.086;2022-09-24T08:42:58;17.99;69.79
67364;HTU21D;54250;45.572;38.086;2022-09-24T08:45:27;17.74;70.01
67364;HTU21D;54250;45.572;38.086;2022-09-24T08:48:16;17.63;69.90
67364;HTU21D;54250;45.572;38.086;2022-09-24T08:50:49;17.64;69.65
67364;HTU21D;54250;45.572;38.086;2022-09-24T08:55:50;17.53;69.43
67364;HTU21D;54250;45.572;38.086;2022-09-24T09:11:34;18.86;66.59
67364;HTU21D;54250;45.572;38.086;2022-09-24T09:14:20;19.97;64.50
67364;HTU21D;54250;45.572;38.086;2022-09-24T09:19:12;20.76;63.18
67364;HTU21D;54250;45.572;38.086;2022-09-24T09:21:41;20.83;63.36
67364;HTU21D;54250;45.572;38.086;2022-09-24T09:24:50;21.74;62.77
67364;HTU21D;54250;45.572;38.086;2022-09-24T09:26:56;24.45;57.63
67364;HTU21D;54250;45.572;38.086;2022-09-24T09:29:23;25.01;57.21
67364;HTU21D;54250;45.572;38.086;2022-09-24T09:32:04;26.41;55.50
67364;HTU21D;54250;45.572;38.086;2022-09-24T09:40:02;29.28;52.53
67364;HTU21D;54250;45.572;38.086;2022-09-24T09:42:30;30.17;51.46
67364;HTU21D;54250;45.572;38.086;2022-09-24T09:45:00;30.56;50.98
67364;HTU21D;54250;45.572;38.086;2022-09-24T09:47:35;31.00;50.47
67364;HTU21D;54250;45.572;38.086;2022-09-24T09:50:12;30.70;50.45
67364;HTU21D;54250;45.572;38.086;2022-09-24T09:52:40;30.82;51.15
67364;HTU21D;54250;45.572;38.086;2022-09-24T09:55:05;31.34;50.39
67364;HTU21D;54250;45.572;38.086;2022-09-24T09:57:32;31.55;49.61
67364;HTU21D;54250;45.572;38.086;2022-09-24T09:59:59;30.75;50.19
67364;HTU21D;54250;45.572;38.086;2022-09-24T10:02:27;30.48;50.66
67364;HTU21D;54250;45.572;38.086;2022-09-24T10:04:59;31.12;49.87
67364;HTU21D;54250;45.572;38.086;2022-09-24T10:07:25;30.85;49.63
67364;HTU21D;54250;45.572;38.086;2022-09-24T10:09:58;29.36;50.19
67364;HTU21D;54250;45.572;38.086;2022-09-24T10:12:26;28.25;53.63
67364;HTU21D;54250;45.572;38.086;2022-09-24T10:15:02;27.01;55.78
67364;HTU21D;54250;45.572;38.086;2022-09-24T10:17:34;25.60;58.35
67364;HTU21D;54250;45.572;38.086;2022-09-24T10:20:01;24.33;60.05
67364;HTU21D;54250;45.572;38.086;2022-09-24T10:22:27;22.75;61.29
67364;HTU21D;54250;45.572;38.086;2022-09-24T10:24:53;21.23;63.04
67364;HTU21D;54250;45.572;38.086;2022-09-24T10:27:30;20.11;64.43
67364;HTU21D;54250;45.572;38.086;2022-09-24T10:29:57;19.31;65.02
67364;HTU21D;54250;45.572;38.086;2022-09-24T10:32:42;18.70;65.26
67364;HTU21D;54250;45.572;38.086;2022-09-24T10:35:41;18.33;65.21
67364;HTU21D;54250;45.572;38.086;2022-09-24T10:38:00;17.89;65.31
67364;HTU21D;54250;45.572;38.086;2022-09-24T10:40:28;17.64;65.45
67364;HTU21D;54250;45.572;38.086;2022-09-24T10:42:59;17.76;64.95
67364;HTU21D;54250;45.572;38.086;2022-09-24T10:45:28;17.84;64.50
67364;HTU21D;54250;45.572;38.086;2022-09-24T10:55:19;17.54;64.67
67364;HTU21D;54250;45.572;38.086;2022-09-24T10:58:03;17.55;64.73
67364;HTU21D;54250;45.572;38.086;2022-09-24T11:00:39;17.75;64.53
67364;HTU21D;54250;45.572;38.086;2022-09-24T11:05:51;18.68;63.44
67364;HTU21D;54250;45.572;38.086;2022-09-24T11:17:04;19.21;63.98
67364;HTU21D;54250;45.572;38.086;2022-09-24T11:24:25;20.28;63.48
67364;HTU21D;54250;45.572;38.086;2022-09-24T11:30:05;20.44;63.87
67364;HTU21D;54250;45.572;38.086;2022-09-24T11:50:31;19.21;66.87
67364;HTU21D;54250;45.572;38.086;2022-09-24T11:53:13;18.79;67.56
67364;HTU21D;54250;45.572;38.086;2022-09-24T11:55:45;18.86;67.36
67364;HTU21D;54250;45.572;38.086;2022-09-24T11:58:17;19.08;66.80
67364;HTU21D;54250;45.572;38.086;2022-09-24T12:00:55;19.24;66.49
67364;HTU21D;54250;45.572;38.086;2022-09-24T12:03:33;19.45;66.11
67364;HTU21D;54250;45.572;38.086;2022-09-24T12:06:02;19.52;65.96
67364;HTU21D;54250;45.572;38.086;2022-09-24T12:08:35;19.54;66.10
67364;HTU21D;54250;45.572;38.086;2022-09-24T12:13:36;19.33;66.58
67364;HTU21D;54250;45.572;38.086;2022-09-24T12:16:05;19.02;67.09
67364;HTU21D;54250;45.572;38.086;2022-09-24T12:18:39;18.72;67.61
67364;HTU21D;54250;45.572;38.086;2022-09-24T12:23:32;18.38;67.93
67364;HTU21D;54250;45.572;38.086;2022-09-24T12:26:01;18.34;67.76
67364;HTU21D;54250;45.572;38.086;2022-09-24T12:28:29;18.32;67.59
67364;HTU21D;54250;45.572;38.086;2022-09-24T12:31:27;18.27;67.43
67364;HTU21D;54250;45.572;38.086;2022-09-24T12:37:06;17.99;67.64
67364;HTU21D;54250;45.572;38.086;2022-09-24T12:39:57;17.89;67.72
67364;HTU21D;54250;45.572;38.086;2022-09-24T12:42:22;17.81;67.69
67364;HTU21D;54250;45.572;38.086;2022-09-24T12:44:51;17.78;67.71
67364;HTU21D;54250;45.572;38.086;2022-09-24T12:47:28;17.68;67.75
67364;HTU21D;54250;45.572;38.086;2022-09-24T12:49:56;17.55;67.89
67364;HTU21D;54250;45.572;38.086;2022-09-24T12:54:59;17.38;68.13
67364;HTU21D;54250;45.572;38.086;2022-09-24T12:57:39;17.31;68.20
67364;HTU21D;54250;45.572;38.086;2022-09-24T13:02:50;17.08;68.46
67364;HTU21D;54250;45.572;38.086;2022-09-24T13:08:01;16.76;68.90
67364;HTU21D;54250;45.572;38.086;2022-09-24T13:10:28;16.62;69.06
67364;HTU21D;54250;45.572;38.086;2022-09-24T13:12:54;16.52;69.11
67364;HTU21D;54250;45.572;38.086;2022-09-24T13:15:34;16.47;69.10
67364;HTU21D;54250;45.572;38.086;2022-09-24T13:20:28;16.37;69.12
67364;HTU21D;54250;45.572;38.086;2022-09-24T13:22:55;16.32;69.16
67364;HTU21D;54250;45.572;38.086;2022-09-24T13:25:22;16.33;69.11
67364;HTU21D;54250;45.572;38.086;2022-09-24T13:27:56;16.33;69.03
67364;HTU21D;54250;45.572;38.086;2022-09-24T13:32:58;16.35;68.92
67364;HTU21D;54250;45.572;38.086;2022-09-24T13:35:27;16.37;68.87
67364;HTU21D;54250;45.572;38.086;2022-09-24T13:37:56;16.39;68.85
67364;HTU21D;54250;45.572;38.086;2022-09-24T13:40:25;16.42;68.84
67364;HTU21D;54250;45.572;38.086;2022-09-24T13:45:21;16.39;68.94
67364;HTU21D;54250;45.572;38.086;2022-09-24T13:53:17;16.22;69.25
67364;HTU21D;54250;45.572;38.086;2022-09-24T13:55:45;16.19;69.30
67364;HTU21D;54250;45.572;38.086;2022-09-24T13:58:25;16.15;69.37
67364;HTU21D;54250;45.572;38.086;2022-09-24T14:00:51;16.10;69.42
67364;HTU21D;54250;45.572;38.086;2022-09-24T14:03:21;16.06;69.49
67364;HTU21D;54250;45.572;38.086;2022-09-24T14:05:48;16.01;69.56
67364;HTU21D;54250;45.572;38.086;2022-09-24T14:08:15;15.92;69.70
67364;HTU21D;54250;45.572;38.086;2022-09-24T14:10:42;15.83;69.84
67364;HTU21D;54250;45.572;38.086;2022-09-24T14:13:13;15.72;69.98
67364;HTU21D;54250;45.572;38.086;2022-09-24T14:15:55;15.62;70.12
67364;HTU21D;54250;45.572;38.086;2022-09-24T14:18:21;15.51;70.24
67364;HTU21D;54250;45.572;38.086;2022-09-24T14:23:19;15.31;70.40
67364;HTU21D;54250;45.572;38.086;2022-09-24T14:25:46;15.23;70.48
67364;HTU21D;54250;45.572;38.086;2022-09-24T14:28:14;15.15;70.55
67364;HTU21D;54250;45.572;38.086;2022-09-24T14:30:53;15.07;70.61
67364;HTU21D;54250;45.572;38.086;2022-09-24T14:33:24;14.99;70.63
67364;HTU21D;54250;45.572;38.086;2022-09-24T14:35:51;14.95;70.64
67364;HTU21D;54250;45.572;38.086;2022-09-24T14:41:11;14.79;70.72
67364;HTU21D;54250;45.572;38.086;2022-09-24T14:46:00;14.62;70.97
67364;HTU21D;54250;45.572;38.086;2022-09-24T14:48:28;14.53;71.05
67364;HTU21D;54250;45.572;38.086;2022-09-24T14:50:54;14.45;71.13
67364;HTU21D;54250;45.572;38.086;2022-09-24T14:53:27;14.42;71.16
67364;HTU21D;54250;45.572;38.086;2022-09-24T14:55:53;14.40;71.16
67364;HTU21D;54250;45.572;38.086;2022-09-24T14:58:31;14.33;71.22
67364;HTU21D;54250;45.572;38.086;2022-09-24T15:01:13;14.23;71.33
67364;HTU21D;54250;45.572;38.086;2022-09-24T15:03:40;14.17;71.41
67364;HTU21D;54250;45.572;38.086;2022-09-24T15:06:16;14.12;71.42
67364;HTU21D;54250;45.572;38.086;2022-09-24T15:08:43;14.13;71.37
67364;HTU21D;54250;45.572;38.086;2022-09-24T15:11:17;14.11;71.33
67364;HTU21D;54250;45.572;38.086;2022-09-24T15:13:43;14.09;71.32
67364;HTU21D;54250;45.572;38.086;2022-09-24T15:16:19;14.04;71.43
67364;HTU21D;54250;45.572;38.086;2022-09-24T15:21:32;13.85;71.75
67364;HTU21D;54250;45.572;38.086;2022-09-24T15:23:58;13.77;71.88
67364;HTU21D;54250;45.572;38.086;2022-09-24T15:26:26;13.68;71.98
67364;HTU21D;54250;45.572;38.086;2022-09-24T15:28:52;13.64;72.08
67364;HTU21D;54250;45.572;38.086;2022-09-24T15:31:20;13.61;72.10
67364;HTU21D;54250;45.572;38.086;2022-09-24T15:33:47;13.54;72.18
67364;HTU21D;54250;45.572;38.086;2022-09-24T15:36:13;13.48;72.31
67364;HTU21D;54250;45.572;38.086;2022-09-24T15:38:40;13.38;72.54
67364;HTU21D;54250;45.572;38.086;2022-09-24T15:41:06;13.31;72.78
67364;HTU21D;54250;45.572;38.086;2022-09-24T15:43:32;13.22;72.99
67364;HTU21D;54250;45.572;38.086;2022-09-24T15:46:04;13.10;73.18
67364;HTU21D;54250;45.572;38.086;2022-09-24T15:48:30;12.97;73.44
67364;HTU21D;54250;45.572;38.086;2022-09-24T15:50:56;12.88;73.66
67364;HTU21D;54250;45.572;38.086;2022-09-24T15:53:24;12.79;73.73
67364;HTU21D;54250;45.572;38.086;2022-09-24T15:55:54;12.66;73.89
67364;HTU21D;54250;45.572;38.086;2022-09-24T15:58:21;12.57;74.21
67364;HTU21D;54250;45.572;38.086;2022-09-24T16:00:47;12.45;74.24
67364;HTU21D;54250;45.572;38.086;2022-09-24T16:03:17;12.33;74.44
67364;HTU21D;54250;45.572;38.086;2022-09-24T16:05:44;12.18;74.58
67364;HTU21D;54250;45.572;38.086;2022-09-24T16:08:10;12.03;74.76
67364;HTU21D;54250;45.572;38.086;2022-09-24T16:10:36;11.93;74.93
67364;HTU21D;54250;45.572;38.086;2022-09-24T16:13:02;11.88;74.91
67364;HTU21D;54250;45.572;38.086;2022-09-24T16:15:28;11.84;74.89
67364;HTU21D;54250;45.572;38.086;2022-09-24T16:17:53;11.75;74.89
67364;HTU21D;54250;45.572;38.086;2022-09-24T16:20:19;11.63;74.98
67364;HTU21D;54250;45.572;38.086;2022-09-24T16:22:45;11.59;75.16
67364;HTU21D;54250;45.572;38.086;2022-09-24T16:25:11;11.56;75.06
67364;HTU21D;54250;45.572;38.086;2022-09-24T16:27:37;11.56;75.07
67364;HTU21D;54250;45.572;38.086;2022-09-24T16:30:03;11.64;74.90
67364;HTU21D;54250;45.572;38.086;2022-09-24T16:32:29;11.78;74.61
67364;HTU21D;54250;45.572;38.086;2022-09-24T16:34:56;11.94;74.44
67364;HTU21D;54250;45.572;38.086;2022-09-24T16:37:22;12.06;74.09
67364;HTU21D;54250;45.572;38.086;2022-09-24T16:39:48;12.02;74.14
67364;HTU21D;54250;45.572;38.086;2022-09-24T16:42:14;11.91;74.34
67364;HTU21D;54250;45.572;38.086;2022-09-24T16:44:40;11.79;74.58
67364;HTU21D;54250;45.572;38.086;2022-09-24T16:47:05;11.71;74.80
67364;HTU21D;54250;45.572;38.086;2022-09-24T16:49:31;11.74;74.73
67364;HTU21D;54250;45.572;38.086;2022-09-24T16:51:57;11.85;74.68
67364;HTU21D;54250;45.572;38.086;2022-09-24T16:54:23;11.79;74.59
67364;HTU21D;54250;45.572;38.086;2022-09-24T16:56:49;11.49;74.88
67364;HTU21D;54250;45.572;38.086;2022-09-24T16:59:16;11.11;75.49
67364;HTU21D;54250;45.572;38.086;2022-09-24T17:01:43;10.86;75.77
67364;HTU21D;54250;45.572;38.086;2022-09-24T17:04:09;10.70;75.84
67364;HTU21D;54250;45.572;38.086;2022-09-24T17:06:35;10.59;75.77
67364;HTU21D;54250;45.572;38.086;2022-09-24T17:09:01;10.53;75.66
67364;HTU21D;54250;45.572;38.086;2022-09-24T17:11:45;10.46;75.53
67364;HTU21D;54250;45.572;38.086;2022-09-24T17:14:13;10.42;75.43